sensor_id;sensor_type;location;lat;lon;timestamp;temperature;humidity
10057;DHT22;5068;51.286;7.518;2023-03-21T00:00:00;8.70;59.20
10057;DHT22;5068;51.286;7.518;2023-03-21T00:01:35;8.70;59.10
10057;DHT22;5068;51.286;7.518;2023-03-21T00:03:07;8.70;59.10
10057;DHT22;5068;51.286;7.518;2023-03-21T00:04:41;8.70;59.10
10057;DHT22;5068;51.286;7.518;2023-03-21T00:06:23;8.70;59.10
10057;DHT22;5068;51.286;7.518;2023-03-21T00:07:56;8.70;59.20
10057;DHT22;5068;51.286;7.518;2023-03-21T00:09:28;8.70;59.40
10057;DHT22;5068;51.286;7.518;2023-03-21T00:11:04;8.70;59.30
10057;DHT22;5068;51.286;7.518;2023-03-21T00:12:37;8.70;59.20
10057;DHT22;5068;51.286;7.518;2023-03-21T00:14:11;8.70;59.40
10057;DHT22;5068;51.286;7.518;2023-03-21T00:15:47;8.80;59.70
10057;DHT22;5068;51.286;7.518;2023-03-21T00:17:45;8.80;59.90
10057;DHT22;5068;51.286;7.518;2023-03-21T00:19:21;8.70;59.70
10057;DHT22;5068;51.286;7.518;2023-03-21T00:20:57;8.80;59.80
10057;DHT22;5068;51.286;7.518;2023-03-21T00:22:52;8.80;59.90
10057;DHT22;5068;51.286;7.518;2023-03-21T00:24:25;8.80;59.90
10057;DHT22;5068;51.286;7.518;2023-03-21T00:25:59;8.80;59.90
10057;DHT22;5068;51.286;7.518;2023-03-21T00:27:32;8.80;59.80
10057;DHT22;5068;51.286;7.518;2023-03-21T00:29:26;8.80;59.90
10057;DHT22;5068;51.286;7.518;2023-03-21T00:31:00;8.80;60.00
10057;DHT22;5068;51.286;7.518;2023-03-21T00:32:34;8.80;60.00
10057;DHT22;5068;51.286;7.518;2023-03-21T00:34:20;8.80;60.20
10057;DHT22;5068;51.286;7.518;2023-03-21T00:36:14;8.80;60.40
10057;DHT22;5068;51.286;7.518;2023-03-21T00:37:48;8.70;60.40
10057;DHT22;5068;51.286;7.518;2023-03-21T00:39:21;8.80;60.50
10057;DHT22;5068;51.286;7.518;2023-03-21T00:40:55;8.70;60.40
10057;DHT22;5068;51.286;7.518;2023-03-21T00:42:36;8.70;60.40
10057;DHT22;5068;51.286;7.518;2023-03-21T00:44:10;8.70;60.40
10057;DHT22;5068;51.286;7.518;2023-03-21T00:45:46;8.70;60.40
10057;DHT22;5068;51.286;7.518;2023-03-21T00:47:22;8.70;60.20
10057;DHT22;5068;51.286;7.518;2023-03-21T00:48:56;8.70;60.50
10057;DHT22;5068;51.286;7.518;2023-03-21T00:50:30;8.70;60.70
10057;DHT22;5068;51.286;7.518;2023-03-21T00:52:07;8.70;60.90
10057;DHT22;5068;51.286;7.518;2023-03-21T00:54:01;8.70;61.00
10057;DHT22;5068;51.286;7.518;2023-03-21T00:55:36;8.70;61.20
10057;DHT22;5068;51.286;7.518;2023-03-21T00:57:09;8.70;61.30
10057;DHT22;5068;51.286;7.518;2023-03-21T00:58:42;8.60;61.20
10057;DHT22;5068;51.286;7.518;2023-03-21T01:00:17;8.70;61.30
10057;DHT22;5068;51.286;7.518;2023-03-21T01:01:51;8.70;61.30
10057;DHT22;5068;51.286;7.518;2023-03-21T01:03:25;8.60;61.20
10057;DHT22;5068;51.286;7.518;2023-03-21T01:04:59;8.70;61.30
10057;DHT22;5068;51.286;7.518;2023-03-21T01:06:36;8.60;61.20
10057;DHT22;5068;51.286;7.518;2023-03-21T01:08:10;8.60;61.20
10057;DHT22;5068;51.286;7.518;2023-03-21T01:09:58;8.60;61.20
10057;DHT22;5068;51.286;7.518;2023-03-21T01:11:32;8.60;61.20
10057;DHT22;5068;51.286;7.518;2023-03-21T01:13:05;8.60;61.20
10057;DHT22;5068;51.286;7.518;2023-03-21T01:14:37;8.60;61.20
10057;DHT22;5068;51.286;7.518;2023-03-21T01:16:10;8.60;61.40
10057;DHT22;5068;51.286;7.518;2023-03-21T01:17:44;8.60;61.50
10057;DHT22;5068;51.286;7.518;2023-03-21T01:19:21;8.60;61.50
10057;DHT22;5068;51.286;7.518;2023-03-21T01:21:12;8.60;61.70
10057;DHT22;5068;51.286;7.518;2023-03-21T01:22:46;8.60;61.70
10057;DHT22;5068;51.286;7.518;2023-03-21T01:24:18;8.60;62.00
10057;DHT22;5068;51.286;7.518;2023-03-21T01:25:52;8.60;61.50
10057;DHT22;5068;51.286;7.518;2023-03-21T01:27:26;8.60;61.60
10057;DHT22;5068;51.286;7.518;2023-03-21T01:28:59;8.60;61.60
10057;DHT22;5068;51.286;7.518;2023-03-21T01:30:32;8.70;61.80
10057;DHT22;5068;51.286;7.518;2023-03-21T01:32:12;8.60;61.80
10057;DHT22;5068;51.286;7.518;2023-03-21T01:33:46;8.60;61.90
10057;DHT22;5068;51.286;7.518;2023-03-21T01:35:22;8.60;62.00
10057;DHT22;5068;51.286;7.518;2023-03-21T01:36:57;8.60;62.00
10057;DHT22;5068;51.286;7.518;2023-03-21T01:38:31;8.60;62.00
10057;DHT22;5068;51.286;7.518;2023-03-21T01:40:05;8.60;62.10
10057;DHT22;5068;51.286;7.518;2023-03-21T01:41:44;8.50;62.10
10057;DHT22;5068;51.286;7.518;2023-03-21T01:43:35;8.50;62.00
10057;DHT22;5068;51.286;7.518;2023-03-21T01:48:08;8.50;62.30
10057;DHT22;5068;51.286;7.518;2023-03-21T01:49:52;8.50;62.10
10057;DHT22;5068;51.286;7.518;2023-03-21T01:51:52;8.50;62.10
10057;DHT22;5068;51.286;7.518;2023-03-21T01:53:36;8.50;62.20
10057;DHT22;5068;51.286;7.518;2023-03-21T01:55:12;8.50;62.20
10057;DHT22;5068;51.286;7.518;2023-03-21T01:57:21;8.50;62.30
10057;DHT22;5068;51.286;7.518;2023-03-21T01:59:16;8.50;62.50
10057;DHT22;5068;51.286;7.518;2023-03-21T02:01:15;8.50;62.50
10057;DHT22;5068;51.286;7.518;2023-03-21T02:02:55;8.50;62.40
10057;DHT22;5068;51.286;7.518;2023-03-21T02:04:54;8.50;62.50
10057;DHT22;5068;51.286;7.518;2023-03-21T02:06:37;8.40;62.40
10057;DHT22;5068;51.286;7.518;2023-03-21T02:08:37;8.50;62.70
10057;DHT22;5068;51.286;7.518;2023-03-21T02:10:16;8.40;62.50
10057;DHT22;5068;51.286;7.518;2023-03-21T02:11:54;8.40;62.50
10057;DHT22;5068;51.286;7.518;2023-03-21T02:13:33;8.40;62.60
10057;DHT22;5068;51.286;7.518;2023-03-21T02:15:10;8.40;62.70
10057;DHT22;5068;51.286;7.518;2023-03-21T02:17:00;8.40;62.70
10057;DHT22;5068;51.286;7.518;2023-03-21T02:18:41;8.40;62.90
10057;DHT22;5068;51.286;7.518;2023-03-21T02:20:52;8.40;63.10
10057;DHT22;5068;51.286;7.518;2023-03-21T02:25:43;8.40;62.80
10057;DHT22;5068;51.286;7.518;2023-03-21T02:27:33;8.40;62.90
10057;DHT22;5068;51.286;7.518;2023-03-21T02:29:23;8.40;62.70
10057;DHT22;5068;51.286;7.518;2023-03-21T02:31:21;8.30;62.80
10057;DHT22;5068;51.286;7.518;2023-03-21T02:35:23;8.30;62.90
10057;DHT22;5068;51.286;7.518;2023-03-21T02:37:21;8.30;63.00
10057;DHT22;5068;51.286;7.518;2023-03-21T02:39:12;8.30;63.00
10057;DHT22;5068;51.286;7.518;2023-03-21T02:40:52;8.30;63.00
10057;DHT22;5068;51.286;7.518;2023-03-21T02:42:52;8.30;63.00
10057;DHT22;5068;51.286;7.518;2023-03-21T02:44:41;8.30;63.10
10057;DHT22;5068;51.286;7.518;2023-03-21T02:46:27;8.30;63.10
10057;DHT22;5068;51.286;7.518;2023-03-21T02:48:21;8.30;63.20
10057;DHT22;5068;51.286;7.518;2023-03-21T02:50:14;8.30;63.30
10057;DHT22;5068;51.286;7.518;2023-03-21T02:51:51;8.30;63.30
10057;DHT22;5068;51.286;7.518;2023-03-21T02:53:31;8.30;63.30
10057;DHT22;5068;51.286;7.518;2023-03-21T02:55:11;8.30;63.40
10057;DHT22;5068;51.286;7.518;2023-03-21T02:56:55;8.30;63.50
10057;DHT22;5068;51.286;7.518;2023-03-21T02:58:31;8.30;63.40
10057;DHT22;5068;51.286;7.518;2023-03-21T03:00:06;8.30;63.30
10057;DHT22;5068;51.286;7.518;2023-03-21T03:01:50;8.30;63.40
10057;DHT22;5068;51.286;7.518;2023-03-21T03:03:24;8.30;63.40
10057;DHT22;5068;51.286;7.518;2023-03-21T03:05:15;8.30;63.40
10057;DHT22;5068;51.286;7.518;2023-03-21T03:07:10;8.30;63.50
10057;DHT22;5068;51.286;7.518;2023-03-21T03:09:01;8.30;63.50
10057;DHT22;5068;51.286;7.518;2023-03-21T03:10:52;8.30;63.50
10057;DHT22;5068;51.286;7.518;2023-03-21T03:12:42;8.30;63.40
10057;DHT22;5068;51.286;7.518;2023-03-21T03:14:45;8.30;63.40
10057;DHT22;5068;51.286;7.518;2023-03-21T03:16:38;8.30;63.60
10057;DHT22;5068;51.286;7.518;2023-03-21T03:18:27;8.30;63.40
10057;DHT22;5068;51.286;7.518;2023-03-21T03:20:17;8.30;63.50
10057;DHT22;5068;51.286;7.518;2023-03-21T03:21:58;8.30;63.60
10057;DHT22;5068;51.286;7.518;2023-03-21T03:23:41;8.30;63.60
10057;DHT22;5068;51.286;7.518;2023-03-21T03:25:23;8.30;63.70
10057;DHT22;5068;51.286;7.518;2023-03-21T03:27:17;8.30;63.60
10057;DHT22;5068;51.286;7.518;2023-03-21T03:28:58;8.30;63.50
10057;DHT22;5068;51.286;7.518;2023-03-21T03:30:37;8.30;63.50
10057;DHT22;5068;51.286;7.518;2023-03-21T03:32:25;8.30;63.40
10057;DHT22;5068;51.286;7.518;2023-03-21T03:34:05;8.40;63.50
10057;DHT22;5068;51.286;7.518;2023-03-21T03:35:45;8.30;63.50
10057;DHT22;5068;51.286;7.518;2023-03-21T03:37:36;8.30;63.40
10057;DHT22;5068;51.286;7.518;2023-03-21T03:39:12;8.30;63.50
10057;DHT22;5068;51.286;7.518;2023-03-21T03:40:56;8.30;63.50
10057;DHT22;5068;51.286;7.518;2023-03-21T03:42:57;8.30;63.50
10057;DHT22;5068;51.286;7.518;2023-03-21T03:44:39;8.30;63.40
10057;DHT22;5068;51.286;7.518;2023-03-21T03:46:16;8.40;63.50
10057;DHT22;5068;51.286;7.518;2023-03-21T03:48:00;8.30;63.50
10057;DHT22;5068;51.286;7.518;2023-03-21T03:49:46;8.30;63.60
10057;DHT22;5068;51.286;7.518;2023-03-21T03:51:27;8.30;63.60
10057;DHT22;5068;51.286;7.518;2023-03-21T03:53:16;8.30;63.60
10057;DHT22;5068;51.286;7.518;2023-03-21T03:54:56;8.30;64.30
10057;DHT22;5068;51.286;7.518;2023-03-21T03:56:35;8.30;63.40
10057;DHT22;5068;51.286;7.518;2023-03-21T03:58:09;8.40;63.50
10057;DHT22;5068;51.286;7.518;2023-03-21T03:59:54;8.30;63.40
10057;DHT22;5068;51.286;7.518;2023-03-21T04:01:47;8.40;63.60
10057;DHT22;5068;51.286;7.518;2023-03-21T04:03:21;8.30;63.40
10057;DHT22;5068;51.286;7.518;2023-03-21T04:04:55;8.30;63.30
10057;DHT22;5068;51.286;7.518;2023-03-21T04:06:28;8.40;63.40
10057;DHT22;5068;51.286;7.518;2023-03-21T04:08:00;8.30;63.20
10057;DHT22;5068;51.286;7.518;2023-03-21T04:09:41;8.30;63.20
10057;DHT22;5068;51.286;7.518;2023-03-21T04:11:19;8.30;63.20
10057;DHT22;5068;51.286;7.518;2023-03-21T04:12:58;8.30;63.00
10057;DHT22;5068;51.286;7.518;2023-03-21T04:14:46;8.30;62.90
10057;DHT22;5068;51.286;7.518;2023-03-21T04:16:21;8.30;62.70
10057;DHT22;5068;51.286;7.518;2023-03-21T04:17:55;8.30;62.70
10057;DHT22;5068;51.286;7.518;2023-03-21T04:19:29;8.30;62.70
10057;DHT22;5068;51.286;7.518;2023-03-21T04:21:07;8.30;62.70
10057;DHT22;5068;51.286;7.518;2023-03-21T04:22:42;8.30;62.60
10057;DHT22;5068;51.286;7.518;2023-03-21T04:24:14;8.20;62.30
10057;DHT22;5068;51.286;7.518;2023-03-21T04:25:51;8.20;62.20
10057;DHT22;5068;51.286;7.518;2023-03-21T04:27:37;8.20;62.30
10057;DHT22;5068;51.286;7.518;2023-03-21T04:29:48;8.20;62.50
10057;DHT22;5068;51.286;7.518;2023-03-21T04:31:48;8.20;62.20
10057;DHT22;5068;51.286;7.518;2023-03-21T04:33:21;8.20;62.20
10057;DHT22;5068;51.286;7.518;2023-03-21T04:35:00;8.20;62.30
10057;DHT22;5068;51.286;7.518;2023-03-21T04:36:34;8.10;62.30
10057;DHT22;5068;51.286;7.518;2023-03-21T04:38:13;8.10;62.40
10057;DHT22;5068;51.286;7.518;2023-03-21T04:39:47;8.10;62.40
10057;DHT22;5068;51.286;7.518;2023-03-21T04:41:19;8.10;62.50
10057;DHT22;5068;51.286;7.518;2023-03-21T04:42:54;8.00;62.40
10057;DHT22;5068;51.286;7.518;2023-03-21T04:44:27;8.00;62.50
10057;DHT22;5068;51.286;7.518;2023-03-21T04:46:02;8.00;62.50
10057;DHT22;5068;51.286;7.518;2023-03-21T04:47:35;8.00;62.50
10057;DHT22;5068;51.286;7.518;2023-03-21T04:49:08;8.00;62.60
10057;DHT22;5068;51.286;7.518;2023-03-21T04:50:42;8.00;62.50
10057;DHT22;5068;51.286;7.518;2023-03-21T04:52:15;8.00;62.60
10057;DHT22;5068;51.286;7.518;2023-03-21T04:53:47;8.00;62.60
10057;DHT22;5068;51.286;7.518;2023-03-21T04:55:23;8.00;62.70
10057;DHT22;5068;51.286;7.518;2023-03-21T04:56:59;8.00;62.80
10057;DHT22;5068;51.286;7.518;2023-03-21T04:58:32;7.90;62.70
10057;DHT22;5068;51.286;7.518;2023-03-21T05:00:06;7.90;62.70
10057;DHT22;5068;51.286;7.518;2023-03-21T05:01:43;7.90;62.80
10057;DHT22;5068;51.286;7.518;2023-03-21T05:03:17;7.90;62.90
10057;DHT22;5068;51.286;7.518;2023-03-21T05:04:52;7.90;62.90
10057;DHT22;5068;51.286;7.518;2023-03-21T05:06:26;7.90;62.90
10057;DHT22;5068;51.286;7.518;2023-03-21T05:08:00;7.80;62.90
10057;DHT22;5068;51.286;7.518;2023-03-21T05:09:33;7.90;62.90
10057;DHT22;5068;51.286;7.518;2023-03-21T05:11:07;7.90;62.90
10057;DHT22;5068;51.286;7.518;2023-03-21T05:12:40;7.90;63.00
10057;DHT22;5068;51.286;7.518;2023-03-21T05:14:15;7.90;63.10
10057;DHT22;5068;51.286;7.518;2023-03-21T05:15:51;7.90;64.00
10057;DHT22;5068;51.286;7.518;2023-03-21T05:17:25;7.90;63.10
10057;DHT22;5068;51.286;7.518;2023-03-21T05:19:01;7.90;63.20
10057;DHT22;5068;51.286;7.518;2023-03-21T05:20:40;7.90;63.30
10057;DHT22;5068;51.286;7.518;2023-03-21T05:22:14;7.90;63.30
10057;DHT22;5068;51.286;7.518;2023-03-21T05:23:50;7.90;63.30
10057;DHT22;5068;51.286;7.518;2023-03-21T05:25:26;7.90;63.20
10057;DHT22;5068;51.286;7.518;2023-03-21T05:27:17;7.90;63.30
10057;DHT22;5068;51.286;7.518;2023-03-21T05:29:05;7.80;63.10
10057;DHT22;5068;51.286;7.518;2023-03-21T05:30:38;7.80;63.20
10057;DHT22;5068;51.286;7.518;2023-03-21T05:32:12;7.80;63.20
10057;DHT22;5068;51.286;7.518;2023-03-21T05:33:47;7.90;63.50
10057;DHT22;5068;51.286;7.518;2023-03-21T05:35:23;7.80;63.20
10057;DHT22;5068;51.286;7.518;2023-03-21T05:36:59;7.80;63.30
10057;DHT22;5068;51.286;7.518;2023-03-21T05:38:49;7.80;63.30
10057;DHT22;5068;51.286;7.518;2023-03-21T05:40:22;7.80;63.20
10057;DHT22;5068;51.286;7.518;2023-03-21T05:41:59;7.80;63.20
10057;DHT22;5068;51.286;7.518;2023-03-21T05:43:33;7.80;63.20
10057;DHT22;5068;51.286;7.518;2023-03-21T05:45:07;7.80;63.20
10057;DHT22;5068;51.286;7.518;2023-03-21T05:46:42;7.80;63.30
10057;DHT22;5068;51.286;7.518;2023-03-21T05:48:14;7.80;63.40
10057;DHT22;5068;51.286;7.518;2023-03-21T05:50:10;7.80;63.50
10057;DHT22;5068;51.286;7.518;2023-03-21T05:51:48;7.90;64.10
10057;DHT22;5068;51.286;7.518;2023-03-21T05:53:22;7.80;63.50
10057;DHT22;5068;51.286;7.518;2023-03-21T05:54:55;7.90;63.60
10057;DHT22;5068;51.286;7.518;2023-03-21T05:56:30;7.80;63.50
10057;DHT22;5068;51.286;7.518;2023-03-21T05:58:08;7.90;63.60
10057;DHT22;5068;51.286;7.518;2023-03-21T05:59:42;7.80;63.50
10057;DHT22;5068;51.286;7.518;2023-03-21T06:01:15;7.90;63.60
10057;DHT22;5068;51.286;7.518;2023-03-21T06:02:57;7.90;63.60
10057;DHT22;5068;51.286;7.518;2023-03-21T06:04:43;7.90;63.60
10057;DHT22;5068;51.286;7.518;2023-03-21T06:06:18;7.90;63.70
10057;DHT22;5068;51.286;7.518;2023-03-21T06:08:00;7.90;63.60
10057;DHT22;5068;51.286;7.518;2023-03-21T06:09:33;7.90;63.60
10057;DHT22;5068;51.286;7.518;2023-03-21T06:11:11;7.90;63.60
10057;DHT22;5068;51.286;7.518;2023-03-21T06:13:02;7.90;63.60
10057;DHT22;5068;51.286;7.518;2023-03-21T06:14:37;7.90;63.60
10057;DHT22;5068;51.286;7.518;2023-03-21T06:16:31;7.90;63.60
10057;DHT22;5068;51.286;7.518;2023-03-21T06:18:04;7.90;63.70
10057;DHT22;5068;51.286;7.518;2023-03-21T06:19:38;7.90;63.70
10057;DHT22;5068;51.286;7.518;2023-03-21T06:21:18;7.90;63.80
10057;DHT22;5068;51.286;7.518;2023-03-21T06:22:52;7.90;64.00
10057;DHT22;5068;51.286;7.518;2023-03-21T06:24:26;7.90;64.00
10057;DHT22;5068;51.286;7.518;2023-03-21T06:25:59;7.90;64.00
10057;DHT22;5068;51.286;7.518;2023-03-21T06:27:32;8.00;64.10
10057;DHT22;5068;51.286;7.518;2023-03-21T06:29:06;8.00;64.10
10057;DHT22;5068;51.286;7.518;2023-03-21T06:30:39;8.00;64.10
10057;DHT22;5068;51.286;7.518;2023-03-21T06:32:18;8.00;64.10
10057;DHT22;5068;51.286;7.518;2023-03-21T06:33:56;8.00;64.00
10057;DHT22;5068;51.286;7.518;2023-03-21T06:35:29;8.00;64.10
10057;DHT22;5068;51.286;7.518;2023-03-21T06:37:04;8.10;64.10
10057;DHT22;5068;51.286;7.518;2023-03-21T06:38:38;8.10;63.90
10057;DHT22;5068;51.286;7.518;2023-03-21T06:40:12;8.10;63.80
10057;DHT22;5068;51.286;7.518;2023-03-21T06:41:45;8.20;63.90
10057;DHT22;5068;51.286;7.518;2023-03-21T06:43:19;8.20;63.60
10057;DHT22;5068;51.286;7.518;2023-03-21T06:44:52;8.20;63.40
10057;DHT22;5068;51.286;7.518;2023-03-21T06:46:25;8.20;63.20
10057;DHT22;5068;51.286;7.518;2023-03-21T06:47:59;8.20;63.00
10057;DHT22;5068;51.286;7.518;2023-03-21T06:49:41;8.30;63.50
10057;DHT22;5068;51.286;7.518;2023-03-21T06:51:16;8.30;63.20
10057;DHT22;5068;51.286;7.518;2023-03-21T06:53:26;8.30;63.30
10057;DHT22;5068;51.286;7.518;2023-03-21T06:55:16;8.40;63.50
10057;DHT22;5068;51.286;7.518;2023-03-21T06:56:50;8.40;63.50
10057;DHT22;5068;51.286;7.518;2023-03-21T06:58:30;8.40;63.50
10057;DHT22;5068;51.286;7.518;2023-03-21T07:00:04;8.40;63.30
10057;DHT22;5068;51.286;7.518;2023-03-21T07:01:43;8.40;63.30
10057;DHT22;5068;51.286;7.518;2023-03-21T07:03:17;8.50;63.40
10057;DHT22;5068;51.286;7.518;2023-03-21T07:04:51;8.50;63.40
10057;DHT22;5068;51.286;7.518;2023-03-21T07:06:28;8.50;63.50
10057;DHT22;5068;51.286;7.518;2023-03-21T07:08:01;8.50;63.60
10057;DHT22;5068;51.286;7.518;2023-03-21T07:09:39;8.50;63.70
10057;DHT22;5068;51.286;7.518;2023-03-21T07:11:13;8.60;63.90
10057;DHT22;5068;51.286;7.518;2023-03-21T07:12:46;8.60;63.90
10057;DHT22;5068;51.286;7.518;2023-03-21T07:14:24;8.60;63.80
10057;DHT22;5068;51.286;7.518;2023-03-21T07:15:57;8.60;63.90
10057;DHT22;5068;51.286;7.518;2023-03-21T07:17:31;8.60;64.00
10057;DHT22;5068;51.286;7.518;2023-03-21T07:19:04;8.70;64.10
10057;DHT22;5068;51.286;7.518;2023-03-21T07:20:38;8.70;64.20
10057;DHT22;5068;51.286;7.518;2023-03-21T07:22:11;8.70;64.40
10057;DHT22;5068;51.286;7.518;2023-03-21T07:23:45;8.70;64.40
10057;DHT22;5068;51.286;7.518;2023-03-21T07:25:21;8.70;64.40
10057;DHT22;5068;51.286;7.518;2023-03-21T07:26:53;8.70;64.40
10057;DHT22;5068;51.286;7.518;2023-03-21T07:28:27;8.70;64.40
10057;DHT22;5068;51.286;7.518;2023-03-21T07:30:02;8.70;64.40
10057;DHT22;5068;51.286;7.518;2023-03-21T07:31:36;8.70;64.40
10057;DHT22;5068;51.286;7.518;2023-03-21T07:33:11;8.70;64.50
10057;DHT22;5068;51.286;7.518;2023-03-21T07:34:44;8.70;64.40
10057;DHT22;5068;51.286;7.518;2023-03-21T07:36:17;8.80;64.50
10057;DHT22;5068;51.286;7.518;2023-03-21T07:37:52;8.80;64.50
10057;DHT22;5068;51.286;7.518;2023-03-21T07:39:25;8.80;64.60
10057;DHT22;5068;51.286;7.518;2023-03-21T07:41:00;8.80;64.50
10057;DHT22;5068;51.286;7.518;2023-03-21T07:42:37;8.80;64.70
10057;DHT22;5068;51.286;7.518;2023-03-21T07:44:11;8.80;64.60
10057;DHT22;5068;51.286;7.518;2023-03-21T07:45:45;8.80;64.60
10057;DHT22;5068;51.286;7.518;2023-03-21T07:47:18;8.80;64.70
10057;DHT22;5068;51.286;7.518;2023-03-21T07:48:51;8.90;64.80
10057;DHT22;5068;51.286;7.518;2023-03-21T07:50:26;8.80;64.70
10057;DHT22;5068;51.286;7.518;2023-03-21T07:52:00;8.80;64.80
10057;DHT22;5068;51.286;7.518;2023-03-21T07:53:35;8.80;64.80
10057;DHT22;5068;51.286;7.518;2023-03-21T07:55:09;8.90;64.80
10057;DHT22;5068;51.286;7.518;2023-03-21T07:56:44;8.90;64.80
10057;DHT22;5068;51.286;7.518;2023-03-21T07:58:17;8.90;64.70
10057;DHT22;5068;51.286;7.518;2023-03-21T07:59:50;8.90;64.60
10057;DHT22;5068;51.286;7.518;2023-03-21T08:01:24;8.90;64.60
10057;DHT22;5068;51.286;7.518;2023-03-21T08:02:58;8.90;64.70
10057;DHT22;5068;51.286;7.518;2023-03-21T08:04:31;8.90;64.70
10057;DHT22;5068;51.286;7.518;2023-03-21T08:06:09;8.90;64.90
10057;DHT22;5068;51.286;7.518;2023-03-21T08:07:43;8.90;64.90
10057;DHT22;5068;51.286;7.518;2023-03-21T08:09:16;9.00;65.00
10057;DHT22;5068;51.286;7.518;2023-03-21T08:10:49;9.00;65.10
10057;DHT22;5068;51.286;7.518;2023-03-21T08:12:23;9.00;65.20
10057;DHT22;5068;51.286;7.518;2023-03-21T08:13:57;9.00;65.30
10057;DHT22;5068;51.286;7.518;2023-03-21T08:15:30;9.00;65.40
10057;DHT22;5068;51.286;7.518;2023-03-21T08:17:04;9.00;65.40
10057;DHT22;5068;51.286;7.518;2023-03-21T08:18:39;9.00;65.50
10057;DHT22;5068;51.286;7.518;2023-03-21T08:20:15;9.10;65.70
10057;DHT22;5068;51.286;7.518;2023-03-21T08:21:52;9.10;65.80
10057;DHT22;5068;51.286;7.518;2023-03-21T08:23:25;9.10;65.60
10057;DHT22;5068;51.286;7.518;2023-03-21T08:24:58;9.10;65.50
10057;DHT22;5068;51.286;7.518;2023-03-21T08:26:31;9.10;65.30
10057;DHT22;5068;51.286;7.518;2023-03-21T08:28:06;9.10;65.20
10057;DHT22;5068;51.286;7.518;2023-03-21T08:29:39;9.10;65.20
10057;DHT22;5068;51.286;7.518;2023-03-21T08:31:13;9.20;65.30
10057;DHT22;5068;51.286;7.518;2023-03-21T08:32:47;9.20;65.30
10057;DHT22;5068;51.286;7.518;2023-03-21T08:34:20;9.20;65.30
10057;DHT22;5068;51.286;7.518;2023-03-21T08:35:54;9.20;65.20
10057;DHT22;5068;51.286;7.518;2023-03-21T08:37:31;9.20;65.10
10057;DHT22;5068;51.286;7.518;2023-03-21T08:39:05;9.20;65.00
10057;DHT22;5068;51.286;7.518;2023-03-21T08:40:39;9.30;65.10
10057;DHT22;5068;51.286;7.518;2023-03-21T08:42:12;9.30;65.10
10057;DHT22;5068;51.286;7.518;2023-03-21T08:43:46;9.30;65.10
10057;DHT22;5068;51.286;7.518;2023-03-21T08:45:20;9.30;65.20
10057;DHT22;5068;51.286;7.518;2023-03-21T08:46:54;9.30;65.30
10057;DHT22;5068;51.286;7.518;2023-03-21T08:48:27;9.30;65.30
10057;DHT22;5068;51.286;7.518;2023-03-21T08:50:00;9.30;65.50
10057;DHT22;5068;51.286;7.518;2023-03-21T08:51:37;9.40;65.30
10057;DHT22;5068;51.286;7.518;2023-03-21T08:53:11;9.40;65.20
10057;DHT22;5068;51.286;7.518;2023-03-21T08:54:45;9.40;65.20
10057;DHT22;5068;51.286;7.518;2023-03-21T08:56:19;9.40;65.10
10057;DHT22;5068;51.286;7.518;2023-03-21T08:57:52;9.40;64.90
10057;DHT22;5068;51.286;7.518;2023-03-21T08:59:27;9.40;64.90
10057;DHT22;5068;51.286;7.518;2023-03-21T09:01:01;9.40;64.80
10057;DHT22;5068;51.286;7.518;2023-03-21T09:02:34;9.50;65.00
10057;DHT22;5068;51.286;7.518;2023-03-21T09:04:07;9.40;64.70
10057;DHT22;5068;51.286;7.518;2023-03-21T09:05:42;9.50;64.80
10057;DHT22;5068;51.286;7.518;2023-03-21T09:07:16;9.50;64.90
10057;DHT22;5068;51.286;7.518;2023-03-21T09:08:49;9.50;64.90
10057;DHT22;5068;51.286;7.518;2023-03-21T09:10:24;9.50;65.00
10057;DHT22;5068;51.286;7.518;2023-03-21T09:11:57;9.50;65.10
10057;DHT22;5068;51.286;7.518;2023-03-21T09:13:30;9.50;65.10
10057;DHT22;5068;51.286;7.518;2023-03-21T09:15:06;9.50;65.10
10057;DHT22;5068;51.286;7.518;2023-03-21T09:16:40;9.50;65.10
10057;DHT22;5068;51.286;7.518;2023-03-21T09:18:14;9.70;65.40
10057;DHT22;5068;51.286;7.518;2023-03-21T09:19:49;9.60;65.20
10057;DHT22;5068;51.286;7.518;2023-03-21T09:21:25;9.50;65.30
10057;DHT22;5068;51.286;7.518;2023-03-21T09:22:59;9.50;65.10
10057;DHT22;5068;51.286;7.518;2023-03-21T09:24:32;9.50;65.00
10057;DHT22;5068;51.286;7.518;2023-03-21T09:26:06;9.60;65.20
10057;DHT22;5068;51.286;7.518;2023-03-21T09:27:40;9.60;65.30
10057;DHT22;5068;51.286;7.518;2023-03-21T09:29:15;9.60;65.40
10057;DHT22;5068;51.286;7.518;2023-03-21T09:30:51;9.60;65.40
10057;DHT22;5068;51.286;7.518;2023-03-21T09:32:26;9.60;65.40
10057;DHT22;5068;51.286;7.518;2023-03-21T09:34:00;9.60;65.40
10057;DHT22;5068;51.286;7.518;2023-03-21T09:35:33;9.60;65.40
10057;DHT22;5068;51.286;7.518;2023-03-21T09:37:07;9.60;65.40
10057;DHT22;5068;51.286;7.518;2023-03-21T09:38:45;9.60;65.40
10057;DHT22;5068;51.286;7.518;2023-03-21T09:40:24;9.70;65.40
10057;DHT22;5068;51.286;7.518;2023-03-21T09:42:19;9.60;65.20
10057;DHT22;5068;51.286;7.518;2023-03-21T09:44:10;9.70;65.30
10057;DHT22;5068;51.286;7.518;2023-03-21T09:46:01;9.70;65.50
10057;DHT22;5068;51.286;7.518;2023-03-21T09:47:43;9.70;65.50
10057;DHT22;5068;51.286;7.518;2023-03-21T09:49:25;9.70;65.50
10057;DHT22;5068;51.286;7.518;2023-03-21T09:51:03;9.70;65.50
10057;DHT22;5068;51.286;7.518;2023-03-21T09:52:45;9.70;65.50
10057;DHT22;5068;51.286;7.518;2023-03-21T09:54:26;9.70;65.70
10057;DHT22;5068;51.286;7.518;2023-03-21T09:56:04;9.70;65.80
10057;DHT22;5068;51.286;7.518;2023-03-21T09:57:44;9.70;65.90
10057;DHT22;5068;51.286;7.518;2023-03-21T09:59:24;9.70;65.90
10057;DHT22;5068;51.286;7.518;2023-03-21T10:01:11;9.70;65.90
10057;DHT22;5068;51.286;7.518;2023-03-21T10:02:54;9.70;65.80
10057;DHT22;5068;51.286;7.518;2023-03-21T10:04:34;9.80;65.80
10057;DHT22;5068;51.286;7.518;2023-03-21T10:06:12;9.80;65.70
10057;DHT22;5068;51.286;7.518;2023-03-21T10:07:52;9.80;65.80
10057;DHT22;5068;51.286;7.518;2023-03-21T10:09:29;9.80;65.70
10057;DHT22;5068;51.286;7.518;2023-03-21T10:11:10;9.80;65.60
10057;DHT22;5068;51.286;7.518;2023-03-21T10:12:46;9.80;65.60
10057;DHT22;5068;51.286;7.518;2023-03-21T10:14:26;9.80;65.50
10057;DHT22;5068;51.286;7.518;2023-03-21T10:16:12;9.80;65.40
10057;DHT22;5068;51.286;7.518;2023-03-21T10:17:52;9.80;65.60
10057;DHT22;5068;51.286;7.518;2023-03-21T10:19:30;9.80;65.60
10057;DHT22;5068;51.286;7.518;2023-03-21T10:21:04;9.80;65.60
10057;DHT22;5068;51.286;7.518;2023-03-21T10:22:38;9.80;65.60
10057;DHT22;5068;51.286;7.518;2023-03-21T10:24:13;9.70;65.60
10057;DHT22;5068;51.286;7.518;2023-03-21T10:25:51;9.80;65.60
10057;DHT22;5068;51.286;7.518;2023-03-21T10:27:26;9.80;65.70
10057;DHT22;5068;51.286;7.518;2023-03-21T10:29:01;9.80;65.90
10057;DHT22;5068;51.286;7.518;2023-03-21T10:30:38;9.80;66.20
10057;DHT22;5068;51.286;7.518;2023-03-21T10:32:16;9.80;66.50
10057;DHT22;5068;51.286;7.518;2023-03-21T10:33:50;9.80;66.50
10057;DHT22;5068;51.286;7.518;2023-03-21T10:35:26;9.80;66.50
10057;DHT22;5068;51.286;7.518;2023-03-21T10:37:00;9.80;66.50
10057;DHT22;5068;51.286;7.518;2023-03-21T10:38:37;9.80;66.50
10057;DHT22;5068;51.286;7.518;2023-03-21T10:40:14;9.90;66.70
10057;DHT22;5068;51.286;7.518;2023-03-21T10:41:48;9.90;66.70
10057;DHT22;5068;51.286;7.518;2023-03-21T10:43:36;9.90;66.70
10057;DHT22;5068;51.286;7.518;2023-03-21T10:45:15;9.90;66.70
10057;DHT22;5068;51.286;7.518;2023-03-21T10:46:52;10.00;66.70
10057;DHT22;5068;51.286;7.518;2023-03-21T10:48:35;10.00;66.50
10057;DHT22;5068;51.286;7.518;2023-03-21T10:50:12;10.00;66.60